SAA58 FAOR-FZAA

Flight info

Callsign SAA58
Flight time 3h 29m
Altitude 34000
Route LIV1C VASUR UZ21 ITROL UQ25 RUDAS UM731 APKUS UB528 VUE DCT ANUBI UB733 OGNIK OGNIK1B
Aircraft A320/M-SDE3FGHIRWY/LB1

Departure

Time 2026-03-23 13:00
Airport O.R. Tambo International Airport (FAOR)

Arrival

Time 2026-03-23 16:29
Airport Ndjili International Airport (FZAA)
Time Latitude Longitude Altitude Speed Heading
2026-03-23 12:31 -26.13221 28.23308 5568 ft 0 kts 277°
2026-03-23 12:46 -26.13221 28.23311 5568 ft 0 kts 286°
2026-03-23 12:46 -26.13228 28.23323 5568 ft 2 kts 308°
2026-03-23 12:46 -26.13235 28.23334 5568 ft 2 kts 281°
2026-03-23 12:46 -26.13236 28.23350 5567 ft 2 kts 276°
2026-03-23 12:47 -26.13238 28.23367 5566 ft 2 kts 277°
2026-03-23 12:47 -26.13240 28.23383 5565 ft 2 kts 304°
2026-03-23 12:47 -26.13252 28.23394 5565 ft 2 kts 344°
2026-03-23 12:47 -26.13261 28.23396 5565 ft 1 kts
2026-03-23 12:48 -26.13268 28.23394 5565 ft 0 kts
2026-03-23 12:52 -26.13248 28.23397 5564 ft 6 kts
2026-03-23 12:53 -26.13183 28.23407 5562 ft 10 kts
2026-03-23 12:53 -26.13114 28.23439 5558 ft 12 kts 69°
2026-03-23 12:53 -26.13118 28.23546 5552 ft 15 kts 96°
2026-03-23 12:53 -26.13129 28.23658 5547 ft 12 kts 88°
2026-03-23 12:54 -26.13063 28.23720 5542 ft 14 kts 17°
2026-03-23 12:54 -26.12965 28.23751 5539 ft 15 kts 15°
2026-03-23 12:54 -26.12860 28.23783 5535 ft 15 kts 15°
2026-03-23 12:54 -26.12746 28.23817 5532 ft 18 kts 16°
2026-03-23 12:55 -26.12613 28.23860 5529 ft 21 kts 17°
2026-03-23 12:55 -26.12460 28.23907 5526 ft 23 kts 15°
2026-03-23 12:55 -26.12297 28.23957 5525 ft 25 kts 16°
2026-03-23 12:55 -26.12125 28.24010 5524 ft 26 kts 16°
2026-03-23 12:56 -26.11943 28.24067 5521 ft 27 kts 15°
2026-03-23 12:56 -26.11759 28.24123 5519 ft 28 kts 15°
2026-03-23 12:56 -26.11566 28.24183 5518 ft 28 kts 16°
2026-03-23 12:56 -26.11383 28.24240 5518 ft 25 kts 16°
2026-03-23 12:57 -26.11222 28.24292 5516 ft 22 kts 15°
2026-03-23 12:57 -26.11076 28.24335 5515 ft 20 kts 14°
2026-03-23 12:57 -26.10950 28.24374 5516 ft 16 kts 21°
2026-03-23 12:57 -26.10886 28.24462 5516 ft 14 kts 62°
2026-03-23 12:58 -26.10848 28.24551 5515 ft 11 kts 84°
2026-03-23 12:58 -26.10889 28.24597 5515 ft 8 kts 195°
2026-03-23 12:58 -26.10901 28.24593 5515 ft 0 kts 196°
2026-03-23 12:59 -26.10928 28.24584 5515 ft 21 kts 196°
2026-03-23 12:59 -26.11297 28.24469 5516 ft 86 kts 196°
2026-03-23 12:59 -26.12067 28.24231 5521 ft 142 kts 195°
2026-03-23 12:59 -26.13208 28.23880 5554 ft 189 kts 196°
2026-03-23 13:00 -26.14499 28.23478 6088 ft 193 kts 195°
2026-03-23 13:00 -26.15795 28.23116 6791 ft 195 kts 198°
2026-03-23 13:00 -26.16902 28.22304 7430 ft 196 kts 238°
2026-03-23 13:01 -26.16955 28.19344 8101 ft 207 kts 283°
2026-03-23 13:01 -26.16637 28.17772 8338 ft 220 kts 283°
2026-03-23 13:01 -26.16186 28.16101 8570 ft 232 kts 301°
2026-03-23 13:01 -26.14973 28.14875 8790 ft 244 kts 333°
2026-03-23 13:02 -26.13417 28.13931 8980 ft 262 kts 329°
2026-03-23 13:02 -26.11857 28.12797 9255 ft 277 kts 327°
2026-03-23 13:02 -26.10219 28.11573 9635 ft 288 kts 327°
2026-03-23 13:02 -26.08526 28.10320 10225 ft 291 kts 328°
2026-03-23 13:03 -26.06827 28.09084 10756 ft 295 kts 328°
2026-03-23 13:03 -26.05061 28.07810 10992 ft 309 kts 328°
2026-03-23 13:03 -26.03206 28.06479 11263 ft 322 kts 328°
2026-03-23 13:03 -26.01275 28.05097 11555 ft 335 kts 328°
2026-03-23 13:04 -25.99287 28.03677 11771 ft 348 kts 328°
2026-03-23 13:04 -25.97210 28.02197 12051 ft 357 kts 328°
2026-03-23 13:04 -25.95092 28.00688 12533 ft 361 kts 328°
2026-03-23 13:04 -25.92966 27.99174 13054 ft 362 kts 328°
2026-03-23 13:05 -25.90833 27.97658 13547 ft 364 kts 328°
2026-03-23 13:05 -25.88691 27.96135 13968 ft 366 kts 327°
2026-03-23 13:05 -25.86535 27.94604 14400 ft 369 kts 327°
2026-03-23 13:05 -25.84366 27.93063 14832 ft 371 kts 327°
2026-03-23 13:06 -25.82189 27.91517 15241 ft 373 kts 327°
2026-03-23 13:06 -25.79975 27.89947 15619 ft 376 kts 327°
2026-03-23 13:06 -25.77741 27.88363 16004 ft 379 kts 327°
2026-03-23 13:06 -25.75508 27.86781 16359 ft 381 kts 327°
2026-03-23 13:07 -25.73271 27.85195 16722 ft 383 kts 327°
2026-03-23 13:07 -25.71013 27.83595 17085 ft 385 kts 327°
2026-03-23 13:07 -25.68738 27.81985 17444 ft 387 kts 327°
2026-03-23 13:07 -25.66449 27.80366 17791 ft 388 kts 327°
2026-03-23 13:08 -25.64166 27.78750 18116 ft 390 kts 327°
2026-03-23 13:08 -25.61867 27.77128 18462 ft 392 kts 327°
2026-03-23 13:08 -25.59563 27.75501 18811 ft 393 kts 327°
2026-03-23 13:08 -25.57259 27.73871 19116 ft 395 kts 327°
2026-03-23 13:09 -25.54914 27.72216 19427 ft 397 kts 327°
2026-03-23 13:09 -25.52890 27.70789 19704 ft 399 kts 327°
2026-03-23 13:09 -25.51221 27.69612 19936 ft 399 kts 327°
2026-03-23 13:09 -25.48680 27.67819 20253 ft 402 kts 327°
2026-03-23 13:10 -25.46299 27.66142 20536 ft 404 kts 327°
2026-03-23 13:10 -25.43914 27.64462 20855 ft 405 kts 327°
2026-03-23 13:10 -25.41534 27.62787 21155 ft 406 kts 327°
2026-03-23 13:10 -25.39125 27.61092 21446 ft 407 kts 327°
2026-03-23 13:11 -25.36722 27.59402 21712 ft 409 kts 327°
2026-03-23 13:11 -25.34311 27.57708 21968 ft 411 kts 327°
2026-03-23 13:11 -25.31891 27.56007 22233 ft 412 kts 327°
2026-03-23 13:11 -25.29481 27.54314 22487 ft 414 kts 327°
2026-03-23 13:12 -25.27034 27.52597 22720 ft 416 kts 327°
2026-03-23 13:12 -25.24568 27.50867 22968 ft 417 kts 327°
2026-03-23 13:12 -25.22114 27.49146 23220 ft 419 kts 327°
2026-03-23 13:12 -25.19626 27.47403 23462 ft 420 kts 327°
2026-03-23 13:13 -25.17145 27.45664 23673 ft 422 kts 327°
2026-03-23 13:13 -25.14657 27.43922 23894 ft 424 kts 327°
2026-03-23 13:13 -25.12170 27.42182 24153 ft 425 kts 327°
2026-03-23 13:13 -25.09632 27.40406 24380 ft 426 kts 327°
2026-03-23 13:14 -25.07117 27.38648 24582 ft 428 kts 327°
2026-03-23 13:14 -25.04593 27.36884 24790 ft 430 kts 327°
2026-03-23 13:14 -25.02051 27.35108 24996 ft 431 kts 327°
2026-03-23 13:14 -24.99519 27.33342 25206 ft 432 kts 327°
2026-03-23 13:15 -24.96963 27.31556 25397 ft 434 kts 327°
2026-03-23 13:15 -24.94371 27.29749 25585 ft 436 kts 327°
2026-03-23 13:15 -24.91786 27.27949 25785 ft 438 kts 327°
2026-03-23 13:15 -24.89174 27.26129 26010 ft 439 kts 327°
2026-03-23 13:16 -24.86595 27.24332 26207 ft 440 kts 327°
2026-03-23 13:16 -24.83977 27.22510 26403 ft 442 kts 327°
2026-03-23 13:16 -24.81356 27.20685 26588 ft 443 kts 327°
2026-03-23 13:16 -24.78723 27.18855 26790 ft 444 kts 327°
2026-03-23 13:17 -24.76078 27.17017 27000 ft 445 kts 327°
2026-03-23 13:17 -24.73423 27.15173 27205 ft 446 kts 327°
2026-03-23 13:17 -24.70774 27.13333 27391 ft 448 kts 327°
2026-03-23 13:17 -24.68128 27.11495 27555 ft 449 kts 327°
2026-03-23 13:18 -24.65455 27.09643 27719 ft 451 kts 327°
2026-03-23 13:18 -24.62785 27.07793 27898 ft 452 kts 327°
2026-03-23 13:18 -24.60106 27.05936 28065 ft 454 kts 327°
2026-03-23 13:18 -24.57416 27.04075 28282 ft 453 kts 327°
2026-03-23 13:19 -24.54746 27.02227 28532 ft 453 kts 327°
2026-03-23 13:19 -24.52047 27.00359 28788 ft 452 kts 327°
2026-03-23 13:19 -24.49386 26.98519 29044 ft 451 kts 327°
2026-03-23 13:19 -24.46708 26.96666 29318 ft 449 kts 328°
2026-03-23 13:20 -24.44016 26.94805 29574 ft 449 kts 328°
2026-03-23 13:20 -24.41369 26.92978 29830 ft 447 kts 328°
2026-03-23 13:20 -24.38709 26.91143 30119 ft 446 kts 328°
2026-03-23 13:20 -24.36088 26.89334 30375 ft 445 kts 328°
2026-03-23 13:21 -24.33472 26.87531 30610 ft 444 kts 328°
2026-03-23 13:21 -24.30839 26.85717 30845 ft 444 kts 328°
2026-03-23 13:21 -24.28198 26.83896 31087 ft 443 kts 328°
2026-03-23 13:21 -24.25564 26.82082 31295 ft 443 kts 328°
2026-03-23 13:22 -24.22939 26.80277 31546 ft 442 kts 328°
2026-03-23 13:22 -24.20357 26.78503 31788 ft 441 kts 328°
2026-03-23 13:22 -24.17726 26.76695 32055 ft 439 kts 328°
2026-03-23 13:22 -24.15129 26.74912 32339 ft 437 kts 328°
2026-03-23 13:23 -24.12529 26.73125 32553 ft 437 kts 329°
2026-03-23 13:23 -24.09950 26.71354 32668 ft 439 kts 329°
2026-03-23 13:23 -24.07326 26.69554 32824 ft 441 kts 329°
2026-03-23 13:23 -24.04723 26.67770 33002 ft 441 kts 329°
2026-03-23 13:24 -24.02073 26.65956 33171 ft 442 kts 329°
2026-03-23 13:24 -23.99464 26.64169 33335 ft 443 kts 329°
2026-03-23 13:24 -23.96844 26.62377 33512 ft 443 kts 329°
2026-03-23 13:24 -23.94207 26.60570 33685 ft 443 kts 329°
2026-03-23 13:25 -23.91568 26.58765 33828 ft 444 kts 329°
2026-03-23 13:25 -23.88933 26.56964 33975 ft 445 kts 329°
2026-03-23 13:25 -23.86282 26.55151 34124 ft 445 kts 329°
2026-03-23 13:26 -23.81001 26.51543 34162 ft 446 kts 329°
2026-03-23 13:26 -23.75700 26.47924 34165 ft 447 kts 329°
2026-03-23 13:27 -23.70295 26.44503 34163 ft 447 kts 334°
2026-03-23 13:27 -23.64623 26.41674 34161 ft 446 kts 338°
2026-03-23 13:28 -23.58867 26.38964 34159 ft 446 kts 338°
2026-03-23 13:28 -23.53156 26.36278 34158 ft 446 kts 338°
2026-03-23 13:29 -23.47400 26.33573 34158 ft 446 kts 338°
2026-03-23 13:29 -23.41684 26.30888 34158 ft 446 kts 338°
2026-03-23 13:30 -23.35923 26.28185 34158 ft 447 kts 338°
2026-03-23 13:30 -23.30195 26.25501 34159 ft 447 kts 338°
2026-03-23 13:31 -23.24417 26.22793 34165 ft 448 kts 338°
2026-03-23 13:31 -23.18699 26.20117 34166 ft 448 kts 339°
2026-03-23 13:32 -23.12898 26.17405 34173 ft 448 kts 339°
2026-03-23 13:32 -23.07163 26.14729 34176 ft 447 kts 339°
2026-03-23 13:33 -23.01432 26.12053 34181 ft 449 kts 339°
2026-03-23 13:33 -22.95654 26.09358 34187 ft 449 kts 339°
2026-03-23 13:34 -22.89886 26.06673 34187 ft 450 kts 339°
2026-03-23 13:34 -22.84087 26.03975 34188 ft 449 kts 339°
2026-03-23 13:35 -22.78327 26.01297 34189 ft 449 kts 339°
2026-03-23 13:35 -22.72562 25.98620 34191 ft 449 kts 339°
2026-03-23 13:36 -22.66776 25.95933 34188 ft 450 kts 339°
2026-03-23 13:36 -22.61012 25.93263 34190 ft 451 kts 339°
2026-03-23 13:37 -22.55237 25.90587 34186 ft 451 kts 339°
2026-03-23 13:37 -22.49445 25.87907 34183 ft 451 kts 339°
2026-03-23 13:38 -22.43633 25.85221 34188 ft 450 kts 339°
2026-03-23 13:38 -22.37892 25.82568 34177 ft 451 kts 339°
2026-03-23 13:39 -22.32064 25.79878 34178 ft 452 kts 339°
2026-03-23 13:39 -22.26264 25.77206 34172 ft 452 kts 339°
2026-03-23 13:40 -22.20460 25.74530 34164 ft 452 kts 339°
2026-03-23 13:40 -22.14682 25.71871 34158 ft 453 kts 339°
2026-03-23 13:41 -22.08892 25.69208 34161 ft 451 kts 339°
2026-03-23 13:41 -22.03062 25.66530 34153 ft 453 kts 339°
2026-03-23 13:42 -21.97205 25.63843 34149 ft 453 kts 339°
2026-03-23 13:42 -21.91390 25.61176 34152 ft 453 kts 339°
2026-03-23 13:43 -21.85539 25.58494 34147 ft 454 kts 339°
2026-03-23 13:43 -21.79706 25.55823 34142 ft 453 kts 339°
2026-03-23 13:44 -21.73891 25.53163 34141 ft 453 kts 339°
2026-03-23 13:44 -21.68061 25.50496 34139 ft 454 kts 339°
2026-03-23 13:45 -21.62208 25.47824 34137 ft 453 kts 339°
2026-03-23 13:45 -21.56375 25.45248 34130 ft 453 kts 341°
2026-03-23 13:46 -21.50445 25.42763 34128 ft 453 kts 341°
2026-03-23 13:46 -21.44571 25.40296 34123 ft 452 kts 341°
2026-03-23 13:47 -21.38682 25.37814 34117 ft 453 kts 341°
2026-03-23 13:47 -21.32803 25.35334 34112 ft 453 kts 340°
2026-03-23 13:48 -21.26913 25.32850 34111 ft 453 kts 341°
2026-03-23 13:48 -21.20993 25.30355 34119 ft 452 kts 341°
2026-03-23 13:49 -21.15100 25.27876 34119 ft 452 kts 341°
2026-03-23 13:49 -21.09175 25.25382 34118 ft 452 kts 341°
2026-03-23 13:50 -21.03312 25.22919 34114 ft 452 kts 341°
2026-03-23 13:50 -20.97482 25.20252 34112 ft 454 kts 338°
2026-03-23 13:51 -20.88842 25.16011 34113 ft 453 kts 338°
2026-03-23 13:51 -20.83108 25.13196 34108 ft 452 kts 338°
2026-03-23 13:52 -20.77355 25.10376 34106 ft 452 kts 338°
2026-03-23 13:52 -20.71561 25.07538 34103 ft 452 kts 338°
2026-03-23 13:53 -20.65758 25.04699 34100 ft 452 kts 338°
2026-03-23 13:53 -20.59984 25.01875 34102 ft 453 kts 338°
2026-03-23 13:54 -20.54241 24.99068 34100 ft 452 kts 338°
2026-03-23 13:54 -20.48507 24.96268 34097 ft 452 kts 338°
2026-03-23 13:55 -20.42707 24.93520 34098 ft 451 kts 341°
2026-03-23 13:55 -20.36823 24.91221 34097 ft 451 kts 342°
2026-03-23 13:56 -20.30862 24.88943 34103 ft 450 kts 342°
2026-03-23 13:56 -20.24848 24.86642 34104 ft 450 kts 342°
2026-03-23 13:57 -20.18919 24.84380 34103 ft 451 kts 342°
2026-03-23 13:57 -20.13086 24.81893 34102 ft 451 kts 340°
2026-03-23 13:58 -20.07259 24.79316 34103 ft 451 kts 340°
2026-03-23 13:58 -20.01421 24.76735 34107 ft 451 kts 340°
2026-03-23 13:59 -19.95605 24.74165 34108 ft 452 kts 340°
2026-03-23 13:59 -19.89778 24.71594 34105 ft 452 kts 340°
2026-03-23 14:00 -19.83934 24.69017 34096 ft 451 kts 340°
2026-03-23 14:00 -19.78142 24.66463 34098 ft 451 kts 340°
2026-03-23 14:01 -19.72285 24.63883 34092 ft 451 kts 340°
2026-03-23 14:01 -19.66479 24.61323 34097 ft 451 kts 340°
2026-03-23 14:02 -19.60694 24.58737 34092 ft 452 kts 339°
2026-03-23 14:02 -19.54900 24.56141 34092 ft 451 kts 339°
2026-03-23 14:03 -19.49068 24.53532 34091 ft 451 kts 339°
2026-03-23 14:03 -19.43269 24.50940 34088 ft 450 kts 339°
2026-03-23 14:04 -19.37484 24.48357 34085 ft 451 kts 339°
2026-03-23 14:04 -19.31712 24.45782 34084 ft 449 kts 339°
2026-03-23 14:05 -19.25911 24.43194 34090 ft 450 kts 340°
2026-03-23 14:05 -19.20127 24.40617 34083 ft 450 kts 339°
2026-03-23 14:06 -19.14345 24.38041 34083 ft 449 kts 339°
2026-03-23 14:06 -19.08563 24.35541 34083 ft 449 kts 341°
2026-03-23 14:07 -19.02703 24.33141 34078 ft 449 kts 341°
2026-03-23 14:07 -18.96884 24.30749 34081 ft 448 kts 341°
2026-03-23 14:08 -18.91070 24.28347 34079 ft 448 kts 341°
2026-03-23 14:08 -18.85297 24.25723 34084 ft 449 kts 339°
2026-03-23 14:09 -18.79556 24.23065 34082 ft 448 kts 339°
2026-03-23 14:09 -18.73839 24.20417 34083 ft 447 kts 339°
2026-03-23 14:10 -18.68127 24.17775 34077 ft 447 kts 339°
2026-03-23 14:10 -18.62396 24.15126 34077 ft 447 kts 339°
2026-03-23 14:11 -18.56681 24.12485 34085 ft 447 kts 339°
2026-03-23 14:11 -18.50957 24.09842 34077 ft 446 kts 339°
2026-03-23 14:12 -18.45269 24.07217 34081 ft 445 kts 339°
2026-03-23 14:12 -18.39571 24.04590 34074 ft 445 kts 339°
2026-03-23 14:13 -18.33830 24.01945 34084 ft 446 kts 339°
2026-03-23 14:13 -18.28123 23.99425 34081 ft 445 kts 340°
2026-03-23 14:14 -18.22370 23.96928 34088 ft 444 kts 340°
2026-03-23 14:14 -18.16647 23.94438 34090 ft 444 kts 340°
2026-03-23 14:15 -18.10909 23.91940 34092 ft 443 kts 340°
2026-03-23 14:15 -18.05204 23.89453 34082 ft 443 kts 340°
2026-03-23 14:16 -17.99494 23.86964 34078 ft 444 kts 340°
2026-03-23 14:16 -17.93764 23.84470 34068 ft 443 kts 340°
2026-03-23 14:17 -17.88080 23.81991 34075 ft 443 kts 340°
2026-03-23 14:17 -17.82357 23.79456 34074 ft 443 kts 339°
2026-03-23 14:18 -17.76664 23.76934 34077 ft 442 kts 339°
2026-03-23 14:18 -17.70953 23.74404 34081 ft 443 kts 339°
2026-03-23 14:19 -17.65274 23.71846 34074 ft 442 kts 339°
2026-03-23 14:19 -17.59627 23.69290 34074 ft 442 kts 339°
2026-03-23 14:20 -17.53940 23.66810 34075 ft 442 kts 340°
2026-03-23 14:20 -17.48204 23.64389 34073 ft 443 kts 340°
2026-03-23 14:21 -17.42486 23.61974 34074 ft 442 kts 340°
2026-03-23 14:21 -17.36762 23.59548 34074 ft 441 kts 340°
2026-03-23 14:22 -17.31045 23.57124 34069 ft 441 kts 340°
2026-03-23 14:22 -17.25327 23.54699 34073 ft 442 kts 340°
2026-03-23 14:23 -17.19585 23.52267 34068 ft 441 kts 340°
2026-03-23 14:23 -17.13822 23.49827 34068 ft 441 kts 340°
2026-03-23 14:24 -17.08110 23.47411 34067 ft 441 kts 340°
2026-03-23 14:24 -17.02383 23.44991 34061 ft 440 kts 340°
2026-03-23 14:25 -16.96665 23.42576 34068 ft 441 kts 339°
2026-03-23 14:25 -16.90979 23.40174 34056 ft 441 kts 340°
2026-03-23 14:26 -16.85241 23.37752 34053 ft 440 kts 340°
2026-03-23 14:27 -16.76715 23.34156 34057 ft 441 kts 340°
2026-03-23 14:27 -16.70975 23.31739 34062 ft 442 kts 340°
2026-03-23 14:28 -16.65275 23.29341 34057 ft 441 kts 340°
2026-03-23 14:28 -16.59545 23.26930 34055 ft 441 kts 340°
2026-03-23 14:29 -16.53852 23.24536 34056 ft 441 kts 340°
2026-03-23 14:29 -16.48117 23.22125 34061 ft 441 kts 340°
2026-03-23 14:30 -16.42404 23.19727 34053 ft 442 kts 340°
2026-03-23 14:30 -16.36695 23.17331 34057 ft 443 kts 340°
2026-03-23 14:31 -16.30920 23.14909 34057 ft 442 kts 340°
2026-03-23 14:31 -16.25202 23.12513 34052 ft 442 kts 340°
2026-03-23 14:32 -16.19473 23.10113 34043 ft 442 kts 340°
2026-03-23 14:32 -16.13782 23.07730 34044 ft 442 kts 340°
2026-03-23 14:33 -16.08030 23.05323 34049 ft 443 kts 340°
2026-03-23 14:33 -16.02321 23.02937 34056 ft 444 kts 340°
2026-03-23 14:34 -15.96575 23.00536 34053 ft 444 kts 339°
2026-03-23 14:34 -15.90858 22.98148 34059 ft 445 kts 339°
2026-03-23 14:35 -15.85082 22.95738 34062 ft 443 kts 339°
2026-03-23 14:35 -15.79344 22.93344 34061 ft 444 kts 339°
2026-03-23 14:36 -15.73578 22.90937 34060 ft 446 kts 339°
2026-03-23 14:36 -15.67800 22.88526 34058 ft 444 kts 339°
2026-03-23 14:37 -15.62095 22.86138 34059 ft 445 kts 338°
2026-03-23 14:37 -15.56351 22.83535 34057 ft 448 kts 337°
2026-03-23 14:38 -15.50658 22.80931 34056 ft 447 kts 337°
2026-03-23 14:38 -15.44947 22.78328 34055 ft 447 kts 337°
2026-03-23 14:39 -15.39270 22.75749 34057 ft 447 kts 337°
2026-03-23 14:39 -15.33522 22.73139 34053 ft 448 kts 337°
2026-03-23 14:40 -15.27785 22.70539 34055 ft 449 kts 337°
2026-03-23 14:40 -15.22084 22.67954 34056 ft 449 kts 337°
2026-03-23 14:41 -15.16352 22.65360 34055 ft 449 kts 337°
2026-03-23 14:41 -15.10591 22.62753 34051 ft 450 kts 337°
2026-03-23 14:42 -15.04856 22.60159 34042 ft 450 kts 337°
2026-03-23 14:42 -14.99112 22.57562 34036 ft 450 kts 337°
2026-03-23 14:43 -14.93332 22.54950 34035 ft 451 kts 337°
2026-03-23 14:43 -14.87581 22.52352 34035 ft 452 kts 337°
2026-03-23 14:44 -14.81785 22.49737 34037 ft 454 kts 337°
2026-03-23 14:44 -14.75995 22.47124 34038 ft 453 kts 337°
2026-03-23 14:45 -14.70218 22.44520 34036 ft 452 kts 337°
2026-03-23 14:45 -14.64433 22.41914 34036 ft 454 kts 337°
2026-03-23 14:46 -14.58645 22.39305 34034 ft 452 kts 337°
2026-03-23 14:46 -14.52850 22.36697 34033 ft 452 kts 337°
2026-03-23 14:47 -14.44262 22.32591 34033 ft 453 kts 332°
2026-03-23 14:47 -14.38874 22.29187 34031 ft 455 kts 326°
2026-03-23 14:48 -14.33819 22.25218 34027 ft 458 kts 322°
2026-03-23 14:48 -14.28846 22.21091 34028 ft 457 kts 322°
2026-03-23 14:49 -14.23897 22.16990 34028 ft 457 kts 322°
2026-03-23 14:49 -14.18904 22.12863 34036 ft 457 kts 322°
2026-03-23 14:50 -14.13901 22.08731 34043 ft 457 kts 322°
2026-03-23 14:50 -14.08911 22.04609 34045 ft 458 kts 322°
2026-03-23 14:51 -14.03913 22.00470 34045 ft 458 kts 321°
2026-03-23 14:51 -13.99095 21.96049 34049 ft 459 kts 319°
2026-03-23 14:52 -13.94360 21.91604 34049 ft 459 kts 319°
2026-03-23 14:52 -13.89602 21.87139 34052 ft 460 kts 319°
2026-03-23 14:53 -13.84845 21.82679 34053 ft 460 kts 319°
2026-03-23 14:53 -13.80070 21.78206 34050 ft 460 kts 319°
2026-03-23 14:54 -13.75308 21.73746 34049 ft 460 kts 319°
2026-03-23 14:54 -13.70570 21.69309 34046 ft 459 kts 319°
2026-03-23 14:55 -13.65803 21.64848 34043 ft 459 kts 319°
2026-03-23 14:55 -13.61048 21.60403 34049 ft 459 kts 319°
2026-03-23 14:56 -13.56328 21.55993 34050 ft 459 kts 319°
2026-03-23 14:56 -13.51553 21.51536 34049 ft 459 kts 319°
2026-03-23 14:57 -13.46801 21.47100 34046 ft 459 kts 319°
2026-03-23 14:57 -13.42076 21.42691 34049 ft 458 kts 319°
2026-03-23 14:58 -13.37318 21.38256 34050 ft 459 kts 319°
2026-03-23 14:58 -13.32546 21.33809 34050 ft 458 kts 319°
2026-03-23 14:59 -13.27821 21.29407 34050 ft 458 kts 319°
2026-03-23 14:59 -13.23096 21.25008 34052 ft 457 kts 319°
2026-03-23 15:00 -13.18364 21.20609 34054 ft 458 kts 319°
2026-03-23 15:00 -13.13672 21.16246 34055 ft 457 kts 319°
2026-03-23 15:01 -13.08967 21.11874 34053 ft 456 kts 319°
2026-03-23 15:01 -13.04270 21.07513 34058 ft 455 kts 319°
2026-03-23 15:02 -12.99570 21.03150 34054 ft 455 kts 319°
2026-03-23 15:02 -12.94881 20.98800 34059 ft 455 kts 319°
2026-03-23 15:03 -12.90180 20.94443 34060 ft 455 kts 319°
2026-03-23 15:03 -12.85459 20.90064 34060 ft 456 kts 319°
2026-03-23 15:04 -12.80736 20.85692 34059 ft 456 kts 319°
2026-03-23 15:04 -12.76028 20.81332 34052 ft 456 kts 319°
2026-03-23 15:05 -12.71310 20.76965 34057 ft 457 kts 319°
2026-03-23 15:05 -12.66580 20.72592 34054 ft 457 kts 319°
2026-03-23 15:06 -12.61883 20.68250 34056 ft 457 kts 319°
2026-03-23 15:06 -12.57145 20.63872 34062 ft 457 kts 319°
2026-03-23 15:07 -12.52404 20.59493 34066 ft 458 kts 319°
2026-03-23 15:07 -12.47649 20.55106 34072 ft 458 kts 319°
2026-03-23 15:08 -12.42924 20.50747 34076 ft 459 kts 319°
2026-03-23 15:08 -12.38151 20.46349 34077 ft 459 kts 319°
2026-03-23 15:09 -12.33396 20.41967 34077 ft 459 kts 319°
2026-03-23 15:09 -12.28654 20.37597 34079 ft 460 kts 319°
2026-03-23 15:10 -12.23893 20.33212 34075 ft 460 kts 319°
2026-03-23 15:10 -12.19128 20.28829 34081 ft 461 kts 319°
2026-03-23 15:11 -12.14355 20.24438 34086 ft 461 kts 319°
2026-03-23 15:11 -12.09607 20.20076 34086 ft 461 kts 319°
2026-03-23 15:12 -12.04833 20.15687 34087 ft 461 kts 319°
2026-03-23 15:12 -12.00047 20.11292 34090 ft 461 kts 319°
2026-03-23 15:13 -11.95291 20.06923 34091 ft 462 kts 319°
2026-03-23 15:13 -11.90498 20.02522 34101 ft 460 kts 319°
2026-03-23 15:14 -11.85742 19.98158 34106 ft 461 kts 319°
2026-03-23 15:14 -11.80949 19.93762 34107 ft 461 kts 319°
2026-03-23 15:15 -11.75990 19.89615 34107 ft 460 kts 324°
2026-03-23 15:15 -11.70646 19.86013 34108 ft 459 kts 329°
2026-03-23 15:16 -11.65177 19.82573 34107 ft 460 kts 329°
2026-03-23 15:16 -11.59743 19.79155 34102 ft 459 kts 329°
2026-03-23 15:17 -11.54260 19.75705 34101 ft 460 kts 329°
2026-03-23 15:17 -11.48799 19.72267 34101 ft 460 kts 329°
2026-03-23 15:18 -11.43338 19.68830 34098 ft 461 kts 329°
2026-03-23 15:18 -11.37857 19.65382 34095 ft 461 kts 329°
2026-03-23 15:19 -11.32363 19.61927 34094 ft 461 kts 329°
2026-03-23 15:19 -11.26906 19.58497 34093 ft 462 kts 329°
2026-03-23 15:20 -11.21410 19.55042 34093 ft 462 kts 329°
2026-03-23 15:20 -11.15953 19.51617 34098 ft 461 kts 329°
2026-03-23 15:21 -11.10467 19.48173 34101 ft 461 kts 329°
2026-03-23 15:21 -11.04993 19.44739 34108 ft 462 kts 329°
2026-03-23 15:22 -10.99531 19.41315 34114 ft 461 kts 329°
2026-03-23 15:22 -10.94056 19.37881 34110 ft 461 kts 329°
2026-03-23 15:23 -10.88560 19.34438 34110 ft 461 kts 329°
2026-03-23 15:23 -10.83077 19.31001 34103 ft 462 kts 329°
2026-03-23 15:24 -10.77589 19.27565 34092 ft 462 kts 329°
2026-03-23 15:24 -10.72099 19.24131 34084 ft 462 kts 329°
2026-03-23 15:25 -10.66590 19.20684 34072 ft 463 kts 329°
2026-03-23 15:25 -10.61088 19.17245 34064 ft 463 kts 329°
2026-03-23 15:26 -10.55574 19.13801 34065 ft 464 kts 329°
2026-03-23 15:27 -10.47282 19.08618 34045 ft 465 kts 329°
2026-03-23 15:27 -10.41786 19.05187 34043 ft 465 kts 330°
2026-03-23 15:28 -10.36236 19.01726 34043 ft 464 kts 330°
2026-03-23 15:28 -10.30704 18.98274 34040 ft 465 kts 329°
2026-03-23 15:29 -10.22371 18.93079 34052 ft 467 kts 330°
2026-03-23 15:29 -10.16849 18.89638 34048 ft 467 kts 330°
2026-03-23 15:30 -10.11252 18.86152 34043 ft 468 kts 330°
2026-03-23 15:30 -10.05723 18.82710 34034 ft 468 kts 330°
2026-03-23 15:31 -10.00166 18.79252 34025 ft 468 kts 330°
2026-03-23 15:31 -9.94574 18.75772 34023 ft 468 kts 330°
2026-03-23 15:32 -9.88998 18.72304 34022 ft 468 kts 330°
2026-03-23 15:32 -9.83418 18.68837 34019 ft 468 kts 330°
2026-03-23 15:33 -9.77819 18.65357 34022 ft 468 kts 330°
2026-03-23 15:33 -9.72259 18.61903 34020 ft 468 kts 330°
2026-03-23 15:34 -9.66703 18.58454 34021 ft 467 kts 330°
2026-03-23 15:34 -9.61128 18.54994 34020 ft 468 kts 330°
2026-03-23 15:35 -9.55522 18.51518 34019 ft 468 kts 330°
2026-03-23 15:35 -9.49947 18.48059 34018 ft 468 kts 330°
2026-03-23 15:36 -9.44343 18.44585 34018 ft 468 kts 330°
2026-03-23 15:36 -9.38748 18.41118 34017 ft 468 kts 330°
2026-03-23 15:37 -9.33169 18.37662 34019 ft 468 kts 330°
2026-03-23 15:37 -9.27575 18.34199 34016 ft 467 kts 330°
2026-03-23 15:38 -9.22003 18.30750 34012 ft 467 kts 330°
2026-03-23 15:38 -9.16412 18.27292 34007 ft 467 kts 330°
2026-03-23 15:39 -9.10825 18.23835 34001 ft 467 kts 330°
2026-03-23 15:39 -9.05227 18.20373 34004 ft 468 kts 330°
2026-03-23 15:40 -8.99633 18.16915 34003 ft 468 kts 330°
2026-03-23 15:40 -8.94057 18.13470 33995 ft 467 kts 330°
2026-03-23 15:41 -8.88485 18.10028 33987 ft 466 kts 330°
2026-03-23 15:41 -8.82929 18.06598 33982 ft 466 kts 330°
2026-03-23 15:42 -8.77325 18.03140 33978 ft 467 kts 330°
2026-03-23 15:42 -8.71754 17.99703 33980 ft 467 kts 330°
2026-03-23 15:43 -8.66188 17.96270 33982 ft 467 kts 330°
2026-03-23 15:43 -8.60588 17.92817 33980 ft 467 kts 330°
2026-03-23 15:44 -8.55024 17.89389 33976 ft 467 kts 330°
2026-03-23 15:44 -8.49412 17.85932 33966 ft 467 kts 330°
2026-03-23 15:45 -8.43863 17.82515 33964 ft 466 kts 330°
2026-03-23 15:45 -8.38290 17.79083 33963 ft 467 kts 330°
2026-03-23 15:46 -8.32690 17.75636 33971 ft 467 kts 330°
2026-03-23 15:46 -8.27131 17.72217 33958 ft 467 kts 330°
2026-03-23 15:47 -8.21582 17.68806 33958 ft 467 kts 330°
2026-03-23 15:47 -8.15991 17.65370 33963 ft 467 kts 330°
2026-03-23 15:48 -8.10457 17.61969 33951 ft 467 kts 330°
2026-03-23 15:48 -8.04878 17.58542 33948 ft 466 kts 329°
2026-03-23 15:49 -7.99331 17.55134 33950 ft 467 kts 329°
2026-03-23 15:49 -7.93773 17.51721 33939 ft 467 kts 330°
2026-03-23 15:50 -7.88195 17.48296 33949 ft 467 kts 330°
2026-03-23 15:50 -7.82596 17.44861 33941 ft 467 kts 330°
2026-03-23 15:51 -7.77019 17.41440 33942 ft 467 kts 330°
2026-03-23 15:51 -7.71397 17.37994 33936 ft 467 kts 329°
2026-03-23 15:52 -7.65788 17.34554 33934 ft 468 kts 330°
2026-03-23 15:52 -7.60189 17.31122 33923 ft 468 kts 330°
2026-03-23 15:53 -7.54619 17.27709 33935 ft 467 kts 330°
2026-03-23 15:53 -7.49032 17.24286 33926 ft 468 kts 330°
2026-03-23 15:54 -7.43440 17.20865 33919 ft 468 kts 330°
2026-03-23 15:54 -7.37846 17.17440 33926 ft 468 kts 330°
2026-03-23 15:55 -7.32284 17.14035 33921 ft 468 kts 330°
2026-03-23 15:55 -7.26687 17.10615 33913 ft 468 kts 330°
2026-03-23 15:56 -7.21125 17.07211 33910 ft 468 kts 330°
2026-03-23 15:56 -7.15522 17.03785 33913 ft 468 kts 330°
2026-03-23 15:57 -7.09966 17.00389 33912 ft 468 kts 330°
2026-03-23 15:57 -7.04388 16.96982 33918 ft 468 kts 330°
2026-03-23 15:58 -6.98784 16.93559 33925 ft 467 kts 330°
2026-03-23 15:58 -6.93241 16.90173 33934 ft 467 kts 330°
2026-03-23 15:59 -6.87675 16.86776 33943 ft 467 kts 330°
2026-03-23 15:59 -6.82078 16.83360 33945 ft 467 kts 330°
2026-03-23 16:00 -6.76513 16.79962 33948 ft 467 kts 330°
2026-03-23 16:00 -6.70966 16.76580 33945 ft 467 kts 330°
2026-03-23 16:01 -6.65396 16.73183 33946 ft 468 kts 330°
2026-03-23 16:01 -6.59798 16.69771 33945 ft 467 kts 330°
2026-03-23 16:02 -6.54228 16.66373 33952 ft 468 kts 330°
2026-03-23 16:02 -6.48651 16.62974 33959 ft 468 kts 330°
2026-03-23 16:03 -6.43067 16.59573 33962 ft 468 kts 330°
2026-03-23 16:03 -6.37436 16.56143 33967 ft 468 kts 330°
2026-03-23 16:04 -6.31829 16.52727 33967 ft 468 kts 330°
2026-03-23 16:04 -6.26225 16.49316 33968 ft 468 kts 330°
2026-03-23 16:05 -6.20591 16.45885 33964 ft 468 kts 330°
2026-03-23 16:05 -6.14999 16.42481 33961 ft 469 kts 330°
2026-03-23 16:06 -6.09406 16.39075 33959 ft 468 kts 330°
2026-03-23 16:06 -6.03827 16.35678 33956 ft 468 kts 330°
2026-03-23 16:07 -5.98207 16.32374 33951 ft 467 kts 333°
2026-03-23 16:07 -5.92457 16.29255 33959 ft 467 kts 334°
2026-03-23 16:08 -5.86705 16.26139 33955 ft 467 kts 333°
2026-03-23 16:08 -5.80971 16.23028 33962 ft 467 kts 333°
2026-03-23 16:09 -5.78116 16.21477 33843 ft 462 kts 333°
2026-03-23 16:09 -5.75278 16.19934 33230 ft 460 kts 333°
2026-03-23 16:09 -5.72465 16.18407 32392 ft 462 kts 333°
2026-03-23 16:09 -5.69637 16.16872 31605 ft 463 kts 333°
2026-03-23 16:10 -5.66797 16.15331 30909 ft 464 kts 333°
2026-03-23 16:10 -5.63947 16.13782 30299 ft 467 kts 333°
2026-03-23 16:10 -5.61049 16.12209 29709 ft 469 kts 334°
2026-03-23 16:10 -5.58176 16.10649 29119 ft 471 kts 334°
2026-03-23 16:11 -5.55310 16.09026 28535 ft 475 kts 331°
2026-03-23 16:11 -5.52485 16.07204 27960 ft 478 kts 327°
2026-03-23 16:11 -5.49787 16.05217 27390 ft 475 kts 324°
2026-03-23 16:11 -5.47196 16.03192 26825 ft 470 kts 324°
2026-03-23 16:12 -5.44616 16.01158 26257 ft 466 kts 324°
2026-03-23 16:12 -5.42052 15.99131 25686 ft 461 kts 324°
2026-03-23 16:12 -5.39531 15.97140 25120 ft 457 kts 324°
2026-03-23 16:12 -5.37061 15.95194 24563 ft 454 kts 324°
2026-03-23 16:13 -5.34573 15.93233 23998 ft 450 kts 324°
2026-03-23 16:13 -5.32099 15.91287 23436 ft 446 kts 324°
2026-03-23 16:13 -5.29671 15.89378 22891 ft 443 kts 324°
2026-03-23 16:13 -5.27258 15.87481 22347 ft 440 kts 324°
2026-03-23 16:14 -5.24816 15.85562 21813 ft 436 kts 324°
2026-03-23 16:14 -5.22410 15.83672 21285 ft 433 kts 324°
2026-03-23 16:14 -5.20040 15.81808 20761 ft 430 kts 324°
2026-03-23 16:14 -5.17694 15.79964 20236 ft 427 kts 324°
2026-03-23 16:15 -5.15325 15.78105 19701 ft 424 kts 324°
2026-03-23 16:15 -5.12998 15.76277 19173 ft 421 kts 324°
2026-03-23 16:15 -5.10695 15.74466 18702 ft 417 kts 325°
2026-03-23 16:15 -5.08460 15.72708 18283 ft 403 kts 325°
2026-03-23 16:16 -5.06296 15.71005 17561 ft 390 kts 325°
2026-03-23 16:16 -5.04189 15.69348 17023 ft 374 kts 325°
2026-03-23 16:16 -5.02167 15.67760 16234 ft 367 kts 325°
2026-03-23 16:16 -5.00179 15.66204 15337 ft 364 kts 324°
2026-03-23 16:17 -4.98181 15.64640 14444 ft 361 kts 324°
2026-03-23 16:17 -4.96212 15.63101 13556 ft 358 kts 324°
2026-03-23 16:17 -4.94250 15.61561 12707 ft 358 kts 323°
2026-03-23 16:17 -4.92297 15.60028 12168 ft 357 kts 323°
2026-03-23 16:18 -4.90333 15.58483 11794 ft 353 kts 323°
2026-03-23 16:18 -4.88403 15.56967 11432 ft 350 kts 323°
2026-03-23 16:18 -4.86485 15.55461 11085 ft 346 kts 323°
2026-03-23 16:18 -4.84607 15.53986 10904 ft 336 kts 323°
2026-03-23 16:19 -4.82791 15.52560 10739 ft 327 kts 323°
2026-03-23 16:19 -4.80998 15.51151 10571 ft 318 kts 323°
2026-03-23 16:19 -4.79295 15.49813 10418 ft 309 kts 322°
2026-03-23 16:19 -4.77610 15.48490 10275 ft 301 kts 323°
2026-03-23 16:20 -4.75969 15.47201 10112 ft 293 kts 323°
2026-03-23 16:20 -4.74377 15.45951 9838 ft 290 kts 323°
2026-03-23 16:20 -4.72778 15.44698 9493 ft 290 kts 323°
2026-03-23 16:20 -4.71182 15.43446 9251 ft 282 kts 323°
2026-03-23 16:21 -4.69664 15.42252 8936 ft 272 kts 323°
2026-03-23 16:21 -4.68187 15.41094 8408 ft 270 kts 323°
2026-03-23 16:21 -4.66710 15.39938 7892 ft 266 kts 322°
2026-03-23 16:21 -4.65268 15.38805 7378 ft 262 kts 322°
2026-03-23 16:22 -4.63836 15.37683 6872 ft 259 kts 322°
2026-03-23 16:22 -4.62415 15.36569 6318 ft 256 kts 322°
2026-03-23 16:22 -4.61024 15.35476 5825 ft 254 kts 322°
2026-03-23 16:22 -4.59625 15.34381 5343 ft 253 kts 322°
2026-03-23 16:23 -4.58269 15.33317 5170 ft 245 kts 323°
2026-03-23 16:23 -4.56927 15.32286 5040 ft 237 kts 327°
2026-03-23 16:23 -4.55524 15.31499 5007 ft 223 kts 336°
2026-03-23 16:23 -4.54120 15.30892 4962 ft 218 kts 339°
2026-03-23 16:24 -4.52716 15.30316 4805 ft 214 kts 339°
2026-03-23 16:24 -4.51342 15.29754 4614 ft 210 kts 338°
2026-03-23 16:24 -4.50003 15.29201 4384 ft 200 kts 340°
2026-03-23 16:24 -4.48690 15.29043 4198 ft 191 kts 16°
2026-03-23 16:25 -4.47669 15.29849 3995 ft 190 kts 56°
2026-03-23 16:25 -4.47021 15.31000 3856 ft 188 kts 60°
2026-03-23 16:25 -4.46378 15.32162 3637 ft 190 kts 58°
2026-03-23 16:25 -4.45719 15.33285 3319 ft 187 kts 57°
2026-03-23 16:26 -4.45038 15.34393 3000 ft 182 kts 56°
2026-03-23 16:26 -4.44375 15.35445 2748 ft 173 kts 55°
2026-03-23 16:26 -4.43748 15.36429 2517 ft 161 kts 54°
2026-03-23 16:27 -4.42624 15.38184 2080 ft 138 kts 54°
2026-03-23 16:27 -4.42109 15.38983 1907 ft 136 kts 54°
2026-03-23 16:27 -4.41588 15.39790 1731 ft 136 kts 53°
2026-03-23 16:27 -4.41079 15.40579 1557 ft 135 kts 53°
2026-03-23 16:28 -4.40562 15.41375 1362 ft 135 kts 53°
2026-03-23 16:28 -4.40048 15.42161 1153 ft 134 kts 54°
2026-03-23 16:28 -4.39543 15.42949 1031 ft 131 kts 54°
2026-03-23 16:28 -4.39138 15.43555 1023 ft 73 kts 57°
2026-03-23 16:29 -4.38892 15.43939 1023 ft 57 kts 57°
2026-03-23 16:29 -4.38748 15.44171 1023 ft 31 kts 56°
2026-03-23 16:29 -4.38649 15.44321 1023 ft 20 kts 57°
2026-03-23 16:29 -4.38586 15.44423 1022 ft 12 kts 69°
2026-03-23 16:30 -4.38613 15.44483 1023 ft 7 kts 148°
2026-03-23 16:30 -4.38635 15.44497 1022 ft 3 kts 147°
2026-03-23 16:30 -4.38659 15.44512 1022 ft 4 kts 147°
2026-03-23 16:30 -4.38689 15.44532 1022 ft 5 kts 146°
2026-03-23 16:31 -4.38723 15.44553 1022 ft 6 kts 148°
2026-03-23 16:31 -4.38761 15.44571 1022 ft 6 kts 183°
2026-03-23 16:31 -4.38806 15.44561 1022 ft 5 kts 194°
2026-03-23 16:31 -4.38833 15.44553 1023 ft 3 kts 195°
2026-03-23 16:32 -4.38861 15.44546 1022 ft 3 kts 195°
2026-03-23 16:32 -4.38868 15.44544 1022 ft 0 kts 195°